Time;durP1;ratioP1;P1;durP2;ratioP2;P2;SDS_P1;SDS_P2;PMS_P1;PMS_P2;Temp;Humidity;BMP_temperature;BMP_pressure;BME280_temperature;BME280_humidity;BME280_pressure;Samples;Min_cycle;Max_cycle;Signal;HPM_P1;HPM_P2
2023/12/23 00:00:38;;;;;;;4.13;0.70;;;;;;;;;;4992325;28;20282;-83
2023/12/23 00:03:10;;;;;;;5.32;0.90;;;;;;;;;;4979169;28;20572;-82
2023/12/23 00:05:40;;;;;;;2.53;0.90;;;;;;;;;;4977147;28;20196;-82
2023/12/23 00:08:10;;;;;;;3.38;0.80;;;;;;;;;;4974518;28;20201;-83
2023/12/23 00:10:40;;;;;;;4.32;0.98;;;;;;;;;;4978298;28;20714;-82
2023/12/23 00:13:10;;;;;;;4.32;0.80;;;;;;;;;;4979728;28;20199;-83
2023/12/23 00:15:40;;;;;;;2.63;0.90;;;;;;;;;;4992059;28;20206;-82
2023/12/23 00:18:12;;;;;;;2.70;0.82;;;;;;;;;;4976273;28;20205;-83
2023/12/23 00:20:42;;;;;;;1.42;0.80;;;;;;;;;;4978856;28;20200;-82
2023/12/23 00:23:12;;;;;;;2.50;0.80;;;;;;;;;;4978810;28;20203;-83
2023/12/23 00:25:42;;;;;;;3.35;0.80;;;;;;;;;;4987120;28;20191;-84
2023/12/23 00:28:12;;;;;;;3.95;0.82;;;;;;;;;;4975814;28;20255;-83
2023/12/23 00:30:42;;;;;;;2.20;0.68;;;;;;;;;;4993619;28;20223;-82
2023/12/23 00:33:14;;;;;;;2.80;0.70;;;;;;;;;;4987339;28;20215;-82
2023/12/23 00:35:44;;;;;;;2.10;0.60;;;;;;;;;;4979891;28;20224;-82
2023/12/23 00:38:14;;;;;;;3.78;0.80;;;;;;;;;;4995010;28;20200;-83
2023/12/23 00:40:44;;;;;;;4.00;0.70;;;;;;;;;;4985819;28;20204;-83
2023/12/23 00:43:14;;;;;;;2.47;0.70;;;;;;;;;;4995524;28;20303;-81
2023/12/23 00:45:44;;;;;;;3.58;0.65;;;;;;;;;;4996365;28;20228;-83
2023/12/23 00:48:16;;;;;;;5.47;0.90;;;;;;;;;;4980804;28;20211;-83
2023/12/23 00:50:45;;;;;;;1.48;0.75;;;;;;;;;;4996529;28;20228;-83
2023/12/23 00:53:15;;;;;;;4.00;0.80;;;;;;;;;;4985229;28;20207;-82
2023/12/23 00:55:46;;;;;;;3.40;0.90;;;;;;;;;;4992831;28;20193;-83
2023/12/23 00:58:16;;;;;;;3.58;0.90;;;;;;;;;;4985602;28;20197;-82
2023/12/23 01:00:46;;;;;;;3.92;0.80;;;;;;;;;;4985851;28;20663;-82
2023/12/23 01:03:18;;;;;;;2.40;0.88;;;;;;;;;;4982069;28;20203;-82
2023/12/23 01:05:47;;;;;;;3.35;0.90;;;;;;;;;;4986137;28;20692;-83
2023/12/23 01:08:17;;;;;;;3.58;0.70;;;;;;;;;;4980304;28;20205;-85
2023/12/23 01:10:47;;;;;;;3.17;0.80;;;;;;;;;;4984888;28;20652;-82
2023/12/23 01:13:17;;;;;;;2.45;0.80;;;;;;;;;;4982035;28;20584;-82
2023/12/23 01:15:48;;;;;;;2.67;0.80;;;;;;;;;;4986594;28;20242;-84
2023/12/23 01:18:20;;;;;;;2.25;0.80;;;;;;;;;;4988981;28;21092;-83
2023/12/23 01:20:49;;;;;;;2.25;0.80;;;;;;;;;;4979702;28;20624;-82
2023/12/23 01:23:19;;;;;;;3.10;0.93;;;;;;;;;;4979474;28;20195;-83
2023/12/23 01:25:49;;;;;;;1.42;0.60;;;;;;;;;;4987185;28;20322;-85
2023/12/23 01:28:19;;;;;;;2.97;0.75;;;;;;;;;;4981468;28;20311;-83
2023/12/23 01:30:49;;;;;;;5.78;1.25;;;;;;;;;;4976292;28;20210;-84
2023/12/23 01:33:21;;;;;;;2.30;0.70;;;;;;;;;;4979123;28;20208;-83
2023/12/23 01:35:51;;;;;;;2.13;0.80;;;;;;;;;;4977726;28;20192;-83
2023/12/23 01:38:21;;;;;;;4.15;1.20;;;;;;;;;;4976325;28;20200;-83
2023/12/23 01:40:51;;;;;;;4.50;0.82;;;;;;;;;;4975796;28;20210;-86
2023/12/23 01:43:21;;;;;;;3.67;0.60;;;;;;;;;;4976085;28;20588;-84
2023/12/23 01:45:51;;;;;;;6.32;0.75;;;;;;;;;;4974715;28;20240;-84
2023/12/23 01:48:24;;;;;;;1.60;0.70;;;;;;;;;;5005735;23;20234;-77
2023/12/23 01:50:55;;;;;;;2.60;0.65;;;;;;;;;;5014067;28;20191;-76
2023/12/23 01:53:25;;;;;;;4.28;0.77;;;;;;;;;;5014097;28;20195;-76
2023/12/23 01:55:55;;;;;;;4.30;0.70;;;;;;;;;;5013864;28;20202;-78
2023/12/23 01:58:26;;;;;;;1.75;0.80;;;;;;;;;;5013822;28;20222;-76
2023/12/23 02:00:56;;;;;;;2.00;0.60;;;;;;;;;;5013977;28;20562;-76
2023/12/23 02:03:28;;;;;;;2.25;0.70;;;;;;;;;;5013870;28;20206;-77
2023/12/23 02:05:58;;;;;;;3.10;0.50;;;;;;;;;;5013935;28;20227;-76
2023/12/23 02:08:28;;;;;;;2.05;0.60;;;;;;;;;;5014507;28;20219;-76
2023/12/23 02:11:08;;;;;;;1.45;0.57;;;;;;;;;;5032309;28;20190;-76
2023/12/23 02:13:43;;;;;;;2.13;0.55;;;;;;;;;;5033480;28;20190;-77
2023/12/23 02:16:14;;;;;;;1.90;0.40;;;;;;;;;;5033552;28;20186;-78
2023/12/23 02:18:46;;;;;;;1.70;0.50;;;;;;;;;;5033388;28;20194;-77
2023/12/23 02:21:17;;;;;;;3.40;0.55;;;;;;;;;;5033361;28;20281;-76
2023/12/23 02:23:47;;;;;;;3.47;0.75;;;;;;;;;;5033096;28;20201;-76
2023/12/23 02:26:21;;;;;;;2.67;0.60;;;;;;;;;;5033313;28;20587;-77
2023/12/23 02:28:52;;;;;;;1.50;0.50;;;;;;;;;;5033078;28;20200;-76
2023/12/23 02:31:22;;;;;;;3.67;0.70;;;;;;;;;;5033116;28;20224;-77
2023/12/23 02:33:52;;;;;;;1.48;0.60;;;;;;;;;;5033290;28;20296;-77
2023/12/23 02:36:27;;;;;;;2.88;0.70;;;;;;;;;;5033052;28;20212;-77
2023/12/23 02:38:57;;;;;;;4.05;0.68;;;;;;;;;;5032794;28;20186;-77
2023/12/23 02:41:27;;;;;;;2.97;0.60;;;;;;;;;;5028893;28;20211;-76
2023/12/23 02:43:57;;;;;;;4.07;0.70;;;;;;;;;;5013241;28;20197;-77
2023/12/23 02:46:27;;;;;;;2.28;0.60;;;;;;;;;;5019928;28;20202;-77
2023/12/23 02:48:57;;;;;;;2.92;0.90;;;;;;;;;;5021155;28;20603;-76
2023/12/23 02:51:28;;;;;;;1.70;0.50;;;;;;;;;;5031629;28;20580;-76
2023/12/23 02:53:58;;;;;;;1.10;0.60;;;;;;;;;;5032568;28;20194;-76
2023/12/23 02:56:29;;;;;;;1.98;0.80;;;;;;;;;;5019574;28;20194;-77
2023/12/23 02:58:59;;;;;;;4.40;0.60;;;;;;;;;;5026194;28;20705;-77
2023/12/23 03:01:29;;;;;;;3.22;0.60;;;;;;;;;;5010863;28;20697;-76
2023/12/23 03:03:59;;;;;;;2.60;0.60;;;;;;;;;;5021187;28;20847;-76
2023/12/23 03:06:31;;;;;;;3.40;0.60;;;;;;;;;;5025992;28;20200;-77
2023/12/23 03:09:00;;;;;;;1.77;0.60;;;;;;;;;;5031982;28;20194;-76
2023/12/23 03:11:30;;;;;;;2.85;0.70;;;;;;;;;;5032417;28;20226;-75
2023/12/23 03:14:00;;;;;;;2.25;0.60;;;;;;;;;;5032391;28;20202;-77
2023/12/23 03:16:34;;;;;;;1.80;0.60;;;;;;;;;;5021287;28;20203;-78
2023/12/23 03:19:04;;;;;;;4.93;0.63;;;;;;;;;;5027927;28;20194;-76
2023/12/23 03:21:37;;;;;;;4.18;0.70;;;;;;;;;;5032146;28;20209;-77
2023/12/23 03:24:07;;;;;;;2.28;0.85;;;;;;;;;;5032359;28;20646;-77
2023/12/23 03:26:40;;;;;;;3.05;0.65;;;;;;;;;;5031709;28;20653;-77
2023/12/23 03:29:10;;;;;;;1.88;0.57;;;;;;;;;;5032019;28;20206;-77
2023/12/23 03:31:40;;;;;;;2.42;0.85;;;;;;;;;;5032202;28;20226;-77
2023/12/23 03:34:10;;;;;;;3.78;0.80;;;;;;;;;;5032316;28;20210;-76
2023/12/23 03:36:44;;;;;;;4.45;0.93;;;;;;;;;;5030754;28;20195;-76
2023/12/23 03:39:14;;;;;;;5.05;0.77;;;;;;;;;;5016809;28;20198;-76
2023/12/23 03:41:43;;;;;;;3.63;0.85;;;;;;;;;;5012844;28;20206;-76
2023/12/23 03:44:13;;;;;;;5.07;0.63;;;;;;;;;;5027696;28;20194;-78
2023/12/23 03:46:43;;;;;;;2.95;0.70;;;;;;;;;;5032334;28;20209;-77
2023/12/23 03:49:13;;;;;;;3.28;0.52;;;;;;;;;;5028787;28;20233;-76
2023/12/23 03:51:45;;;;;;;3.38;0.70;;;;;;;;;;5031015;28;20233;-77
2023/12/23 03:54:15;;;;;;;4.15;0.80;;;;;;;;;;5032183;28;20715;-77
2023/12/23 03:56:45;;;;;;;5.78;0.80;;;;;;;;;;5032036;28;20224;-77
2023/12/23 03:59:15;;;;;;;2.75;0.73;;;;;;;;;;5045909;28;20207;-76
2023/12/23 04:01:46;;;;;;;4.32;0.60;;;;;;;;;;5012696;28;20207;-76
2023/12/23 04:04:16;;;;;;;2.17;0.60;;;;;;;;;;5029613;28;20197;-76
2023/12/23 04:06:48;;;;;;;3.83;0.80;;;;;;;;;;5032363;28;20202;-76
2023/12/23 04:09:20;;;;;;;3.00;0.50;;;;;;;;;;5028499;28;20198;-76
2023/12/23 04:11:50;;;;;;;3.50;0.60;;;;;;;;;;5030788;28;20214;-76
2023/12/23 04:14:25;;;;;;;4.07;0.88;;;;;;;;;;5035679;28;20202;-76
2023/12/23 04:16:55;;;;;;;3.42;0.82;;;;;;;;;;5035624;28;20645;-76
2023/12/23 04:19:24;;;;;;;4.22;0.82;;;;;;;;;;5032803;28;20207;-76
2023/12/23 04:21:56;;;;;;;2.88;0.70;;;;;;;;;;5015880;28;20210;-76
2023/12/23 04:24:26;;;;;;;3.28;0.90;;;;;;;;;;5030847;28;20642;-76
2023/12/23 04:26:56;;;;;;;2.58;0.70;;;;;;;;;;5035421;28;20211;-76
2023/12/23 04:29:26;;;;;;;2.45;0.60;;;;;;;;;;5033658;28;20206;-77
2023/12/23 04:31:56;;;;;;;4.95;0.70;;;;;;;;;;5024122;28;20230;-75
2023/12/23 04:34:26;;;;;;;3.60;0.60;;;;;;;;;;5024540;28;20213;-77
2023/12/23 04:36:58;;;;;;;2.90;0.60;;;;;;;;;;5016634;28;20206;-76
2023/12/23 04:39:27;;;;;;;3.00;0.60;;;;;;;;;;5024079;28;20187;-77
2023/12/23 04:41:58;;;;;;;3.10;0.63;;;;;;;;;;5021732;28;20199;-76
2023/12/23 04:44:28;;;;;;;4.38;0.60;;;;;;;;;;5024167;28;20270;-76
2023/12/23 04:46:58;;;;;;;2.67;0.50;;;;;;;;;;5023975;28;20223;-78
2023/12/23 04:49:28;;;;;;;2.63;0.52;;;;;;;;;;5018456;28;20724;-77
2023/12/23 04:52:00;;;;;;;2.88;0.70;;;;;;;;;;5020583;28;20606;-76
2023/12/23 04:54:30;;;;;;;2.58;0.70;;;;;;;;;;5023283;28;20943;-76
2023/12/23 04:57:00;;;;;;;1.60;0.50;;;;;;;;;;5024438;28;20265;-76
2023/12/23 04:59:30;;;;;;;3.85;0.60;;;;;;;;;;5019325;28;20199;-76
2023/12/23 05:02:00;;;;;;;1.95;0.60;;;;;;;;;;5020564;28;20209;-77
2023/12/23 05:04:29;;;;;;;3.05;0.63;;;;;;;;;;5034153;28;20194;-78
2023/12/23 05:07:01;;;;;;;2.33;0.50;;;;;;;;;;5026588;28;20217;-77
2023/12/23 05:09:31;;;;;;;1.67;0.75;;;;;;;;;;5027335;28;20213;-77
2023/12/23 05:12:01;;;;;;;2.17;0.60;;;;;;;;;;5032318;28;20205;-76
2023/12/23 05:14:31;;;;;;;1.73;0.50;;;;;;;;;;5033892;28;20236;-76
2023/12/23 05:17:01;;;;;;;1.80;0.40;;;;;;;;;;5025356;28;20194;-76
2023/12/23 05:19:31;;;;;;;2.42;0.50;;;;;;;;;;5025691;28;20206;-76
2023/12/23 05:22:03;;;;;;;2.30;0.68;;;;;;;;;;5019266;28;20210;-76
2023/12/23 05:24:33;;;;;;;3.15;0.60;;;;;;;;;;5021236;28;20191;-76
2023/12/23 05:27:04;;;;;;;2.78;0.60;;;;;;;;;;5015569;28;20213;-77
2023/12/23 05:29:34;;;;;;;3.47;0.60;;;;;;;;;;5029457;28;20205;-76
2023/12/23 05:32:05;;;;;;;2.83;0.60;;;;;;;;;;5023528;28;20615;-77
2023/12/23 05:34:36;;;;;;;1.88;0.60;;;;;;;;;;5031259;28;20196;-76
2023/12/23 05:37:09;;;;;;;1.45;0.50;;;;;;;;;;5017451;28;20277;-77
2023/12/23 05:39:40;;;;;;;1.42;0.43;;;;;;;;;;5026005;28;20187;-75
2023/12/23 05:42:11;;;;;;;1.13;0.40;;;;;;;;;;5019099;28;20339;-77
2023/12/23 05:44:41;;;;;;;0.77;0.50;;;;;;;;;;5018498;28;20202;-75
2023/12/23 05:47:12;;;;;;;2.78;0.50;;;;;;;;;;5029498;28;20194;-77
2023/12/23 05:49:42;;;;;;;3.28;0.77;;;;;;;;;;5032799;28;20230;-77
2023/12/23 05:52:13;;;;;;;3.03;0.60;;;;;;;;;;5022175;28;20256;-77
2023/12/23 05:54:44;;;;;;;3.08;0.57;;;;;;;;;;5028026;28;20191;-77
2023/12/23 05:57:14;;;;;;;1.92;0.60;;;;;;;;;;5004695;28;20210;-76
2023/12/23 05:59:44;;;;;;;3.50;0.60;;;;;;;;;;5029452;28;20204;-77
2023/12/23 06:02:14;;;;;;;0.77;0.43;;;;;;;;;;5023278;28;20199;-77
2023/12/23 06:04:44;;;;;;;2.03;0.60;;;;;;;;;;5017120;28;20222;-77
2023/12/23 06:07:16;;;;;;;3.67;0.60;;;;;;;;;;5023852;28;20214;-77
2023/12/23 06:09:46;;;;;;;2.22;0.60;;;;;;;;;;5029720;28;20190;-77
2023/12/23 06:12:17;;;;;;;1.52;0.50;;;;;;;;;;5019201;28;20202;-76
2023/12/23 06:14:47;;;;;;;2.42;0.73;;;;;;;;;;5025227;28;20552;-76
2023/12/23 06:17:17;;;;;;;1.98;0.60;;;;;;;;;;5019760;28;20217;-77
2023/12/23 06:19:47;;;;;;;3.60;0.80;;;;;;;;;;5033413;28;20201;-76
2023/12/23 06:22:19;;;;;;;2.90;0.70;;;;;;;;;;5031241;28;20198;-77
2023/12/23 06:24:49;;;;;;;4.50;0.70;;;;;;;;;;5031488;28;20202;-77
2023/12/23 06:27:19;;;;;;;2.38;0.60;;;;;;;;;;5020792;28;20199;-76
2023/12/23 06:29:49;;;;;;;2.95;0.68;;;;;;;;;;5030994;28;20194;-76
2023/12/23 06:32:19;;;;;;;2.60;0.80;;;;;;;;;;5031774;28;20646;-76
2023/12/23 06:34:49;;;;;;;3.50;0.80;;;;;;;;;;5033136;28;20676;-76
2023/12/23 06:37:21;;;;;;;2.47;0.80;;;;;;;;;;5032178;28;20194;-77
2023/12/23 06:39:51;;;;;;;3.17;0.70;;;;;;;;;;5031642;28;20638;-76
2023/12/23 06:42:21;;;;;;;3.10;0.88;;;;;;;;;;5024250;28;20195;-76
2023/12/23 06:44:51;;;;;;;4.72;0.80;;;;;;;;;;5021064;28;20210;-76
2023/12/23 06:47:21;;;;;;;1.58;0.57;;;;;;;;;;5012977;28;20214;-76
2023/12/23 06:49:51;;;;;;;2.88;0.93;;;;;;;;;;5013311;28;20194;-77
2023/12/23 06:52:22;;;;;;;2.17;1.08;;;;;;;;;;5030309;28;20197;-76
2023/12/23 06:54:52;;;;;;;1.55;0.60;;;;;;;;;;5032364;28;20195;-76
2023/12/23 06:57:22;;;;;;;3.45;0.70;;;;;;;;;;5022963;28;20202;-77
2023/12/23 06:59:52;;;;;;;3.35;0.80;;;;;;;;;;5032115;28;20212;-76
2023/12/23 07:02:22;;;;;;;2.70;0.90;;;;;;;;;;5030786;28;20198;-77
2023/12/23 07:04:52;;;;;;;5.00;0.93;;;;;;;;;;5031884;28;20218;-76
2023/12/23 07:07:24;;;;;;;3.80;0.98;;;;;;;;;;5015131;28;20202;-77
2023/12/23 07:09:54;;;;;;;4.78;0.90;;;;;;;;;;5012882;28;20201;-77
2023/12/23 07:12:24;;;;;;;2.90;0.80;;;;;;;;;;5023899;28;20210;-77
2023/12/23 07:14:54;;;;;;;3.42;0.73;;;;;;;;;;5029995;28;20666;-75
2023/12/23 07:17:24;;;;;;;7.80;1.00;;;;;;;;;;5031789;28;20208;-74
2023/12/23 07:19:54;;;;;;;5.45;1.08;;;;;;;;;;5032346;28;20206;-78
2023/12/23 07:22:28;;;;;;;10.50;1.35;;;;;;;;;;5031886;28;20687;-75
2023/12/23 07:24:59;;;;;;;5.32;0.93;;;;;;;;;;5019772;28;20201;-75
2023/12/23 07:27:29;;;;;;;5.95;1.25;;;;;;;;;;5023902;28;20193;-77
2023/12/23 07:29:58;;;;;;;6.10;1.10;;;;;;;;;;5016326;28;20195;-79
2023/12/23 07:32:28;;;;;;;6.60;1.00;;;;;;;;;;5019925;28;20209;-77
2023/12/23 07:34:59;;;;;;;4.90;1.17;;;;;;;;;;5028171;28;20212;-76
2023/12/23 07:37:31;;;;;;;2.78;0.60;;;;;;;;;;5032448;28;20213;-77
2023/12/23 07:40:04;;;;;;;3.95;0.85;;;;;;;;;;5033940;28;20186;-75
2023/12/23 07:42:34;;;;;;;4.00;1.00;;;;;;;;;;5025050;28;20280;-75
2023/12/23 07:45:04;;;;;;;3.92;1.13;;;;;;;;;;5040267;28;20543;-75
2023/12/23 07:50:10;;;;;;;4.95;1.05;;;;;;;;;;5003540;28;20638;-81
2023/12/23 07:52:41;;;;;;;5.70;0.98;;;;;;;;;;5001191;28;20191;-82
2023/12/23 07:55:12;;;;;;;2.63;0.80;;;;;;;;;;5014915;28;20319;-82
2023/12/23 07:57:42;;;;;;;6.22;0.98;;;;;;;;;;5015660;28;20222;-83
2023/12/23 08:00:13;;;;;;;4.32;1.00;;;;;;;;;;5015305;28;20198;-82
2023/12/23 08:02:43;;;;;;;4.68;1.08;;;;;;;;;;5010562;28;20207;-82
2023/12/23 08:05:12;;;;;;;7.40;1.30;;;;;;;;;;5003581;28;20207;-81
2023/12/23 08:07:44;;;;;;;6.28;1.38;;;;;;;;;;5002346;28;20199;-83
2023/12/23 08:10:16;;;;;;;5.15;1.10;;;;;;;;;;5013237;28;20187;-81
2023/12/23 08:12:46;;;;;;;5.45;1.02;;;;;;;;;;5012092;28;20203;-83
2023/12/23 08:15:16;;;;;;;3.30;0.77;;;;;;;;;;5007728;28;20197;-81
2023/12/23 08:17:46;;;;;;;4.95;0.70;;;;;;;;;;5002766;28;20199;-83
2023/12/23 08:20:16;;;;;;;6.57;1.05;;;;;;;;;;5008899;28;20677;-81
2023/12/23 08:22:48;;;;;;;4.75;0.82;;;;;;;;;;5009106;28;20206;-82
2023/12/23 08:25:18;;;;;;;6.88;0.80;;;;;;;;;;5003273;28;20551;-80
2023/12/23 08:27:48;;;;;;;4.32;1.00;;;;;;;;;;5012269;28;20195;-81
2023/12/23 08:30:18;;;;;;;4.22;1.00;;;;;;;;;;5008907;28;20210;-81
2023/12/23 08:32:48;;;;;;;3.50;1.00;;;;;;;;;;5000648;28;20703;-82
2023/12/23 08:35:18;;;;;;;2.85;1.10;;;;;;;;;;5004523;28;20209;-82
2023/12/23 08:37:50;;;;;;;6.72;1.40;;;;;;;;;;5002541;28;20658;-82
2023/12/23 08:40:20;;;;;;;3.80;1.00;;;;;;;;;;5008214;28;20187;-82
2023/12/23 08:42:50;;;;;;;3.78;0.77;;;;;;;;;;5000857;28;20200;-84
2023/12/23 08:45:19;;;;;;;5.55;0.90;;;;;;;;;;4999305;28;20275;-81
2023/12/23 08:47:49;;;;;;;7.57;1.05;;;;;;;;;;4997028;28;20233;-80
2023/12/23 08:50:22;;;;;;;5.10;1.00;;;;;;;;;;4990963;28;20195;-82
2023/12/23 08:52:54;;;;;;;2.90;0.80;;;;;;;;;;4993314;28;20596;-81
2023/12/23 08:55:24;;;;;;;4.82;0.90;;;;;;;;;;4991902;28;20207;-80
2023/12/23 08:57:54;;;;;;;3.28;1.00;;;;;;;;;;4995520;28;20208;-81
2023/12/23 09:00:24;;;;;;;4.78;1.02;;;;;;;;;;4995722;28;20208;-82
2023/12/23 09:02:54;;;;;;;6.30;0.90;;;;;;;;;;4990753;28;20203;-81
2023/12/23 09:05:24;;;;;;;5.68;1.00;;;;;;;;;;4994985;28;20214;-82
2023/12/23 09:07:59;;;;;;;3.25;0.75;;;;;;;;;;4991061;28;20208;-81
2023/12/23 09:10:29;;;;;;;2.58;0.90;;;;;;;;;;4993245;28;20210;-81
2023/12/23 09:12:59;;;;;;;6.05;1.30;;;;;;;;;;4994207;28;20199;-82
2023/12/23 09:15:29;;;;;;;3.60;0.90;;;;;;;;;;4990118;28;20231;-81
2023/12/23 09:17:59;;;;;;;4.25;0.75;;;;;;;;;;4990957;28;20294;-80
2023/12/23 09:20:29;;;;;;;3.92;0.80;;;;;;;;;;4993430;28;20200;-82
2023/12/23 09:23:04;;;;;;;6.00;0.90;;;;;;;;;;4995557;28;20207;-82
2023/12/23 09:25:34;;;;;;;3.15;0.70;;;;;;;;;;4993176;28;20195;-80
2023/12/23 09:28:04;;;;;;;5.25;0.82;;;;;;;;;;4991395;28;20211;-81
2023/12/23 09:30:34;;;;;;;3.50;0.90;;;;;;;;;;4991082;28;20547;-81
2023/12/23 09:33:06;;;;;;;3.95;0.75;;;;;;;;;;4994355;28;20208;-81
2023/12/23 09:35:36;;;;;;;6.85;1.05;;;;;;;;;;4994148;28;20556;-82
2023/12/23 09:38:08;;;;;;;3.95;0.80;;;;;;;;;;4986232;28;20206;-81
2023/12/23 09:40:39;;;;;;;6.32;1.20;;;;;;;;;;4994254;28;20569;-81
2023/12/23 09:43:08;;;;;;;3.58;0.70;;;;;;;;;;4992458;28;20204;-81
2023/12/23 09:45:41;;;;;;;4.95;0.80;;;;;;;;;;4991261;28;20207;-80
2023/12/23 09:48:10;;;;;;;5.32;0.70;;;;;;;;;;4989650;28;20235;-79
2023/12/23 09:50:40;;;;;;;7.20;0.90;;;;;;;;;;4988913;28;20274;-81
2023/12/23 09:53:14;;;;;;;2.55;0.80;;;;;;;;;;4990954;28;20236;-80
2023/12/23 09:55:44;;;;;;;2.78;0.60;;;;;;;;;;4982576;28;20195;-81
2023/12/23 09:58:14;;;;;;;4.07;0.90;;;;;;;;;;4993966;28;20207;-82
2023/12/23 10:00:44;;;;;;;2.83;0.60;;;;;;;;;;4996369;28;20219;-80
2023/12/23 10:03:14;;;;;;;2.95;0.60;;;;;;;;;;4994009;28;20207;-80
2023/12/23 10:05:45;;;;;;;2.78;0.88;;;;;;;;;;4987363;28;20679;-81
2023/12/23 10:08:17;;;;;;;5.13;0.88;;;;;;;;;;4992494;28;20200;-80
2023/12/23 10:10:48;;;;;;;2.60;0.70;;;;;;;;;;4988963;28;20227;-81
2023/12/23 10:13:18;;;;;;;5.15;0.95;;;;;;;;;;4993060;28;20214;-80
2023/12/23 10:15:48;;;;;;;4.25;0.80;;;;;;;;;;4981447;28;20803;-80
2023/12/23 10:18:18;;;;;;;2.33;0.70;;;;;;;;;;4984910;28;20609;-80
2023/12/23 10:20:48;;;;;;;5.38;0.90;;;;;;;;;;4992661;28;20579;-80
2023/12/23 10:23:20;;;;;;;4.93;0.70;;;;;;;;;;4993625;28;20205;-80
2023/12/23 10:25:50;;;;;;;4.05;0.77;;;;;;;;;;4994252;28;20663;-80
2023/12/23 10:28:21;;;;;;;5.55;0.70;;;;;;;;;;4994525;28;20282;-79
2023/12/23 10:30:51;;;;;;;3.40;0.80;;;;;;;;;;4993792;28;20196;-81
2023/12/23 10:33:21;;;;;;;2.67;0.80;;;;;;;;;;4993338;28;20206;-82
2023/12/23 10:35:51;;;;;;;3.67;0.77;;;;;;;;;;4994031;28;20226;-80
2023/12/23 10:38:25;;;;;;;2.85;0.73;;;;;;;;;;4993105;28;20204;-81
2023/12/23 10:40:57;;;;;;;5.55;0.82;;;;;;;;;;4987036;28;20208;-82
2023/12/23 10:43:27;;;;;;;3.65;0.80;;;;;;;;;;4993726;28;20203;-81
2023/12/23 10:46:00;;;;;;;4.43;0.88;;;;;;;;;;4988709;28;20208;-81
2023/12/23 10:48:30;;;;;;;6.40;0.85;;;;;;;;;;4993496;28;20294;-82
2023/12/23 10:51:01;;;;;;;2.85;0.73;;;;;;;;;;4984370;28;20572;-81
2023/12/23 10:53:36;;;;;;;4.40;0.77;;;;;;;;;;4981697;28;20216;-81
2023/12/23 10:56:06;;;;;;;3.60;0.77;;;;;;;;;;4993710;28;20560;-81
2023/12/23 10:58:38;;;;;;;3.13;0.80;;;;;;;;;;4993792;28;20567;-82
2023/12/23 11:01:09;;;;;;;4.93;0.93;;;;;;;;;;4993230;28;20207;-81
2023/12/23 11:03:39;;;;;;;2.95;0.70;;;;;;;;;;4993925;28;20221;-79
2023/12/23 11:06:10;;;;;;;3.67;0.70;;;;;;;;;;4993536;28;20201;-81
2023/12/23 11:08:42;;;;;;;4.97;1.08;;;;;;;;;;4993506;28;20195;-82
2023/12/23 11:11:13;;;;;;;3.65;0.70;;;;;;;;;;4993269;28;20567;-80
2023/12/23 11:13:43;;;;;;;4.18;0.95;;;;;;;;;;4987825;28;20199;-80
2023/12/23 11:16:38;;;;;;;4.20;0.73;;;;;;;;;;4988851;28;20215;-79
2023/12/23 11:19:10;;;;;;;5.57;0.90;;;;;;;;;;4997775;28;20277;-80
2023/12/23 11:21:43;;;;;;;3.40;0.73;;;;;;;;;;4992998;28;20200;-81
2023/12/23 11:24:32;;;;;;;4.75;1.08;;;;;;;;;;4993797;28;20211;-81
2023/12/23 11:27:04;;;;;;;7.40;1.00;;;;;;;;;;4983240;28;20203;-81
2023/12/23 11:29:37;;;;;;;3.35;0.73;;;;;;;;;;4987803;28;20195;-81
2023/12/23 11:32:14;;;;;;;4.90;0.80;;;;;;;;;;4982539;28;20232;-80
2023/12/23 11:34:44;;;;;;;3.92;0.82;;;;;;;;;;4990409;28;20222;-81
2023/12/23 11:37:13;;;;;;;3.60;0.90;;;;;;;;;;4992157;28;20206;-80
2023/12/23 11:39:44;;;;;;;3.90;0.80;;;;;;;;;;4993378;28;20282;-81
2023/12/23 11:42:17;;;;;;;4.85;0.82;;;;;;;;;;4998836;28;20655;-81
2023/12/23 11:44:47;;;;;;;4.70;0.90;;;;;;;;;;4994444;28;20277;-81
2023/12/23 11:47:17;;;;;;;3.00;0.85;;;;;;;;;;4990423;28;20203;-81
2023/12/23 11:49:47;;;;;;;5.75;0.63;;;;;;;;;;4992515;28;20737;-84
2023/12/23 11:52:17;;;;;;;3.90;0.90;;;;;;;;;;4990058;28;20576;-81
2023/12/23 11:54:47;;;;;;;4.38;0.98;;;;;;;;;;4989951;28;20262;-82
2023/12/23 11:57:19;;;;;;;6.35;0.90;;;;;;;;;;5000642;28;20286;-82
2023/12/23 11:59:49;;;;;;;5.45;0.70;;;;;;;;;;4992568;28;20202;-82
2023/12/23 12:02:19;;;;;;;2.72;1.00;;;;;;;;;;4993453;28;20246;-82
2023/12/23 12:04:49;;;;;;;6.72;0.90;;;;;;;;;;4993118;28;20211;-84
2023/12/23 12:07:21;;;;;;;5.78;0.93;;;;;;;;;;4993426;28;20203;-81
2023/12/23 12:09:51;;;;;;;4.80;0.73;;;;;;;;;;4993276;28;20541;-80
2023/12/23 12:12:23;;;;;;;4.18;0.65;;;;;;;;;;4993425;28;20203;-81
2023/12/23 12:14:53;;;;;;;2.70;1.02;;;;;;;;;;4987210;28;20240;-82
2023/12/23 12:17:24;;;;;;;3.67;0.70;;;;;;;;;;4992756;28;20218;-80
2023/12/23 12:19:54;;;;;;;6.32;0.95;;;;;;;;;;4988397;28;20256;-80
2023/12/23 12:22:24;;;;;;;4.55;0.77;;;;;;;;;;4992602;28;20250;-80
2023/12/23 12:24:54;;;;;;;7.30;1.13;;;;;;;;;;4995186;28;20196;-79
2023/12/23 12:27:26;;;;;;;5.90;1.10;;;;;;;;;;4990424;28;20208;-80
2023/12/23 12:29:56;;;;;;;4.28;1.00;;;;;;;;;;5006594;28;20210;-81
2023/12/23 12:32:26;;;;;;;4.18;0.90;;;;;;;;;;4997272;28;20210;-81
2023/12/23 12:35:03;;;;;;;8.60;1.02;;;;;;;;;;4993113;28;20227;-80
2023/12/23 12:37:33;;;;;;;5.90;0.73;;;;;;;;;;4993919;28;20206;-79
2023/12/23 12:40:03;;;;;;;4.85;0.80;;;;;;;;;;4990633;28;20202;-80
2023/12/23 12:42:38;;;;;;;6.45;1.00;;;;;;;;;;5014147;28;20206;-80
2023/12/23 12:45:10;;;;;;;3.97;0.80;;;;;;;;;;4981379;28;20191;-80
2023/12/23 12:47:40;;;;;;;5.32;0.98;;;;;;;;;;4989322;28;20216;-83
2023/12/23 12:50:10;;;;;;;3.22;0.68;;;;;;;;;;4985711;28;20200;-81
2023/12/23 12:52:40;;;;;;;3.13;0.85;;;;;;;;;;4977173;28;20205;-81
2023/12/23 12:55:11;;;;;;;5.03;0.90;;;;;;;;;;4993229;28;20230;-80
2023/12/23 12:57:45;;;;;;;3.35;0.90;;;;;;;;;;4996647;28;20231;-80
2023/12/23 13:00:15;;;;;;;3.60;0.52;;;;;;;;;;4996532;28;20560;-80
2023/12/23 13:02:45;;;;;;;4.55;0.80;;;;;;;;;;4995906;28;20211;-80
2023/12/23 13:05:15;;;;;;;3.00;0.73;;;;;;;;;;4998197;28;20663;-80
2023/12/23 13:07:46;;;;;;;5.07;0.85;;;;;;;;;;5015918;28;20238;-80
2023/12/23 13:10:17;;;;;;;5.13;0.88;;;;;;;;;;5015724;28;20709;-80
2023/12/23 13:12:49;;;;;;;6.60;0.80;;;;;;;;;;5015773;28;20643;-80
2023/12/23 13:15:19;;;;;;;3.75;0.70;;;;;;;;;;5015750;28;20219;-79
2023/12/23 13:17:49;;;;;;;5.10;0.68;;;;;;;;;;5015384;28;20198;-82
2023/12/23 13:20:19;;;;;;;4.20;0.90;;;;;;;;;;5015537;28;20203;-80
2023/12/23 13:22:49;;;;;;;4.50;0.80;;;;;;;;;;5011244;28;20213;-80
2023/12/23 13:25:19;;;;;;;5.10;1.05;;;;;;;;;;4995052;28;20226;-81
2023/12/23 13:27:51;;;;;;;4.32;0.80;;;;;;;;;;4995962;28;20215;-79
2023/12/23 13:30:21;;;;;;;2.22;0.65;;;;;;;;;;4994208;28;20192;-80
2023/12/23 13:32:52;;;;;;;6.10;0.82;;;;;;;;;;4993850;28;20196;-80
2023/12/23 13:35:22;;;;;;;3.72;0.60;;;;;;;;;;4995640;28;20241;-79
2023/12/23 13:37:52;;;;;;;4.00;0.60;;;;;;;;;;4986973;28;20279;-79
2023/12/23 13:40:22;;;;;;;5.32;0.88;;;;;;;;;;4992418;28;20199;-79
2023/12/23 13:42:54;;;;;;;4.10;0.80;;;;;;;;;;4991908;28;20224;-80
2023/12/23 13:45:24;;;;;;;3.70;0.70;;;;;;;;;;4976985;28;20279;-79
2023/12/23 13:47:54;;;;;;;3.90;0.65;;;;;;;;;;4995203;28;20246;-79
2023/12/23 13:50:24;;;;;;;3.70;0.80;;;;;;;;;;4990482;28;20188;-80
2023/12/23 13:52:54;;;;;;;3.47;0.70;;;;;;;;;;4988718;28;20196;-79
2023/12/23 13:55:24;;;;;;;3.22;0.80;;;;;;;;;;4991453;28;20231;-80
2023/12/23 13:57:55;;;;;;;6.35;0.80;;;;;;;;;;4982277;28;20206;-79
2023/12/23 14:00:25;;;;;;;4.38;0.70;;;;;;;;;;4993678;28;20194;-79
2023/12/23 14:02:59;;;;;;;4.25;0.90;;;;;;;;;;4983784;28;20211;-80
2023/12/23 14:05:29;;;;;;;3.97;0.80;;;;;;;;;;4983328;28;20203;-80
2023/12/23 14:07:58;;;;;;;3.47;0.65;;;;;;;;;;4994741;28;20207;-80
2023/12/23 14:10:28;;;;;;;4.50;0.80;;;;;;;;;;4994922;28;20282;-79
2023/12/23 14:13:00;;;;;;;2.28;0.70;;;;;;;;;;4991250;28;20633;-80
2023/12/23 14:15:30;;;;;;;4.88;0.80;;;;;;;;;;4994770;28;20216;-79
2023/12/23 14:18:00;;;;;;;2.85;0.52;;;;;;;;;;4994486;28;20200;-79
2023/12/23 14:20:30;;;;;;;4.45;0.70;;;;;;;;;;4994163;28;20195;-80
2023/12/23 14:23:00;;;;;;;7.90;0.90;;;;;;;;;;4989662;28;20207;-79
2023/12/23 14:25:30;;;;;;;2.78;0.60;;;;;;;;;;4988907;28;20228;-79
2023/12/23 14:28:02;;;;;;;2.00;0.55;;;;;;;;;;4977591;28;20291;-80
2023/12/23 14:30:32;;;;;;;5.90;0.85;;;;;;;;;;4975464;28;20196;-80
2023/12/23 14:33:03;;;;;;;3.00;0.70;;;;;;;;;;4984222;28;20202;-81
2023/12/23 14:35:33;;;;;;;3.10;0.70;;;;;;;;;;4985040;28;20211;-80
2023/12/23 14:38:02;;;;;;;6.53;0.70;;;;;;;;;;4981054;28;20686;-80
2023/12/23 14:40:32;;;;;;;4.32;0.60;;;;;;;;;;4994544;28;20544;-80
2023/12/23 14:43:04;;;;;;;2.33;0.80;;;;;;;;;;4985764;28;20202;-80
2023/12/23 14:45:34;;;;;;;5.63;1.00;;;;;;;;;;4982901;28;20640;-79
2023/12/23 14:48:04;;;;;;;3.20;0.60;;;;;;;;;;4992588;28;20691;-79
2023/12/23 14:50:36;;;;;;;4.63;0.98;;;;;;;;;;4993923;28;20192;-79
2023/12/23 14:53:06;;;;;;;3.85;0.70;;;;;;;;;;4994189;28;20191;-80
2023/12/23 14:55:36;;;;;;;4.80;0.80;;;;;;;;;;4993906;28;20227;-80
2023/12/23 14:58:08;;;;;;;4.72;0.70;;;;;;;;;;4993131;28;20207;-79
2023/12/23 15:00:38;;;;;;;3.08;0.63;;;;;;;;;;4978058;28;20188;-79
2023/12/23 15:03:08;;;;;;;5.20;0.80;;;;;;;;;;4977413;28;20675;-79
2023/12/23 15:05:38;;;;;;;6.25;0.73;;;;;;;;;;4987640;28;20204;-79